West Truckee, California
Current Conditions -  °F | °C
As of 1:15 AM on Friday 31 Oct 2014 (Local Time) from KTRK Reporting Station
Clear Clear  
Wind Chill: 50°   Ceiling: Unl
Heat Index: 50°   Visibility: 10mi
Dew Point: 25°   Wind: 10mph
Humidity: 37%   Direction: 190°S
Pressure: 29.99"   Gusts: 17mph
Location:  39.337°N, 120.288°W
Report Text: KTRK 310815Z AUTO 19009G15KT 10SM CLR 10/M04 A2999 RMK AO2
Loading
Personal Weather Stations






























Interactive Weather Map
Tropical Storm Tracking
New forecast layout! Learn more

10-Day Weather Forecast

Advertisements
Track Severe Weather on mobile